Nearby METAR Reports

 

EGVN - Brize Norton Raf, United Kingdom
Distance from station: SSE 20mi, 32km
Updated: 17/01/2019 10:50
Clear
Clear
 Wind from NW
Wind: NW 13 mph , 20 km/h
Temperature: 3°C
Wind Chill: -2°C
Dew Point: -4°C
Humidity: 60%
Barometer: 1013 hPa
Summary: Clear
Visibility: greater than 7 miles , 10 km
2019/01/17 10:50 EGVN 171050Z 32011KT CAVOK 03/M04 Q1013 BLU NOSIG
EGTK - Oxford, United Kingdom
Distance from station: SE 22mi, 35km
Updated: 17/01/2019 11:20
Clear
Clear
 Wind from NW
Wind: NW 13 mph , 20 km/h
Temperature: 3°C
Wind Chill: -2°C
Dew Point: -2°C
Humidity: 70%
Barometer: 1013 hPa
Summary: Clear
Visibility: greater than 7 miles , 10 km
2019/01/17 11:20 EGTK 171120Z 31011KT CAVOK 03/M02 Q1013
 
EGBJ - Staverton (priva, United Kingdom
Distance from station: WSW 23mi, 36km
Updated: 17/01/2019 11:20
Clear
Clear
 Wind from NW
Wind: NW 9 mph , 15 km/h
Temperature: 4°C
Wind Chill: 1°C
Dew Point: -2°C
Humidity: 65%
Barometer: 1014 hPa
Summary: Clear
Visibility: greater than 7 miles , 10 km
2019/01/17 11:20 EGBJ 171120Z 32008KT CAVOK 04/M02 Q1014
EGVA - Fairford Raf, United Kingdom
Distance from station: S 27mi, 43km
Updated: 17/01/2019 10:56
Clear
Clear
 Wind from NNW
Wind: NNW 12 mph , 19 km/h, Gust: 20 mph , 31 km/h
Temperature: 3°C
Wind Chill: -2°C
Dew Point: -4°C
Humidity: 60%
Barometer: 1013.5 hPa
Clouds: Clear
2019/01/17 10:56 EGVA 171056Z AUTO 33010G17KT M M CLR 03/M04 A2993 RMK AO2 SLP143 T00331037 RVRNO $
 
EGBB - Birmingham Airpo, United Kingdom
Distance from station: N 29mi, 46km
Updated: 17/01/2019 11:20
Clear
Clear
 Wind from NW
Wind: NW 17 mph , 28 km/h
Temperature: 3°C
Wind Chill: -3°C
Dew Point: -4°C
Humidity: 60%
Barometer: 1013 hPa
Summary: Clear
Visibility: greater than 7 miles , 10 km
2019/01/17 11:20 EGBB 171120Z 32015KT CAVOK 03/M04 Q1013
EGUB - Benson Raf, United Kingdom
Distance from station: SE 40mi, 65km
Updated: 17/01/2019 10:50
Clear
Clear
 Wind from NW
Wind: NW 14 mph , 22 km/h
Temperature: 2°C
Wind Chill: -3°C
Dew Point: -2°C
Humidity: 75%
Barometer: 1012 hPa
Summary: Clear
Visibility: greater than 7 miles , 10 km
2019/01/17 10:50 EGUB 171050Z 32012KT CAVOK 02/M02 Q1012 BLU NOSIG
 
EGTC - Cranfield, United Kingdom
Distance from station: E 46mi, 74km
Updated: 17/01/2019 11:20
Clear
Clear
 Wind from WNW
Wind: WNW 12 mph , 19 km/h
Temperature: 2°C
Wind Chill: -2°C
Dew Point: -2°C
Humidity: 75%
Barometer: 1011 hPa
Summary: Clear
Visibility: greater than 7 miles , 10 km
2019/01/17 11:20 EGTC 171120Z 30010KT CAVOK 02/M02 Q1011
EGWC - Cosford Raf, United Kingdom
Distance from station: NNW 46mi, 75km
Updated: 16/01/2019 15:50
NOT Current
Partly cloudy
Partly cloudy
 Wind from WSW
Wind: WSW 6 mph , 9 km/h
Temperature: 6°C
Wind Chill: 4°C
Dew Point: 4°C
Humidity: 87%
Barometer: 1001 hPa
Clouds: Partly cloudy
Visibility: 6 miles , 10 km
Cloud details: Few Clouds 610 m
Partly cloudy 3048 m
2019/01/16 15:50 EGWC 161550Z 25005KT 9999 FEW020 SCT100 06/04 Q1001 BLU